Time;durP1;ratioP1;P1;durP2;ratioP2;P2;SDS_P1;SDS_P2;PMS_P1;PMS_P2;Temp;Humidity;BMP_temperature;BMP_pressure;BME280_temperature;BME280_humidity;BME280_pressure;Samples;Min_cycle;Max_cycle;Signal;HPM_P1;HPM_P2
2023/07/31 00:00:19;;;;;;;4.05;1.77;;;;;;;;;;5014171;28;20125;-75
2023/07/31 00:02:45;;;;;;;3.20;1.60;;;;;;;;;;5013636;28;20065;-75
2023/07/31 00:05:13;;;;;;;2.85;1.60;;;;;;;;;;5014003;28;20057;-74
2023/07/31 00:07:45;;;;;;;4.00;1.70;;;;;;;;;;5014194;28;20022;-74
2023/07/31 00:10:11;;;;;;;;;;;;;;;;;;5013740;28;20140;-76
2023/07/31 00:12:42;;;;;;;7.38;1.65;;;;;;;;;;5013078;28;20074;-74
2023/07/31 00:15:08;;;;;;;2.65;1.65;;;;;;;;;;5014701;28;20037;-75
2023/07/31 00:17:36;;;;;;;2.70;1.63;;;;;;;;;;5013368;28;20030;-74
2023/07/31 00:20:02;;;;;;;3.33;1.77;;;;;;;;;;4997752;28;20068;-74
2023/07/31 00:22:31;;;;;;;8.23;2.00;;;;;;;;;;5013064;28;20025;-75
2023/07/31 00:24:57;;;;;;;3.58;1.50;;;;;;;;;;5014072;28;20032;-74
2023/07/31 00:27:28;;;;;;;2.75;1.75;;;;;;;;;;5015691;28;20029;-74
2023/07/31 00:30:00;;;;;;;1.90;1.45;;;;;;;;;;4997809;28;20482;-75
2023/07/31 00:32:29;;;;;;;6.85;1.70;;;;;;;;;;4998687;28;20108;-75
2023/07/31 00:34:55;;;;;;;3.22;1.90;;;;;;;;;;5014292;28;20042;-75
2023/07/31 00:37:24;;;;;;;3.25;1.80;;;;;;;;;;5014411;28;20477;-75
2023/07/31 00:39:50;;;;;;;4.28;1.90;;;;;;;;;;5014713;28;20486;-75
2023/07/31 00:42:18;;;;;;;2.83;1.50;;;;;;;;;;5014216;28;20022;-75
2023/07/31 00:44:47;;;;;;;2.42;1.70;;;;;;;;;;5014393;28;20377;-75
2023/07/31 00:47:13;;;;;;;5.60;1.88;;;;;;;;;;5014157;28;20757;-75
2023/07/31 00:49:39;;;;;;;5.43;1.60;;;;;;;;;;5016159;28;20022;-75
2023/07/31 00:52:06;;;;;;;4.03;1.70;;;;;;;;;;5015754;28;20402;-74
2023/07/31 00:54:32;;;;;;;4.40;1.98;;;;;;;;;;5015028;28;20112;-73
2023/07/31 00:56:59;;;;;;;5.28;1.90;;;;;;;;;;5016382;28;20052;-74
2023/07/31 00:59:25;;;;;;;4.30;1.60;;;;;;;;;;5013642;28;20033;-74
2023/07/31 01:02:12;;;;;;;4.25;2.15;;;;;;;;;;5013642;28;20030;-74
2023/07/31 01:04:39;;;;;;;4.45;1.77;;;;;;;;;;5015285;28;20026;-74
2023/07/31 01:08:02;;;;;;;2.33;1.52;;;;;;;;;;5014413;28;20064;-74
2023/07/31 01:10:37;;;;;;;1.80;1.70;;;;;;;;;;4983583;28;20753;-75
2023/07/31 01:13:03;;;;;;;3.22;2.03;;;;;;;;;;4997715;28;20267;-74
2023/07/31 01:15:29;;;;;;;4.20;1.50;;;;;;;;;;5013367;28;20036;-76
2023/07/31 01:17:56;;;;;;;2.22;1.63;;;;;;;;;;5014305;28;20034;-75
2023/07/31 01:20:23;;;;;;;3.72;1.40;;;;;;;;;;5013947;28;20061;-75
2023/07/31 01:23:01;;;;;;;4.50;1.30;;;;;;;;;;5012569;28;20084;-75
2023/07/31 01:26:00;;;;;;;2.63;1.50;;;;;;;;;;5014216;28;20114;-75
2023/07/31 01:28:56;;;;;;;3.05;1.85;;;;;;;;;;5005955;28;20042;-75
2023/07/31 01:31:24;;;;;;;3.97;1.60;;;;;;;;;;5009801;28;20058;-75
2023/07/31 01:34:02;;;;;;;5.07;1.80;;;;;;;;;;5012769;28;20033;-75
2023/07/31 01:36:36;;;;;;;6.72;1.70;;;;;;;;;;5014116;28;20022;-75
2023/07/31 01:39:03;;;;;;;4.20;1.27;;;;;;;;;;5012862;28;20041;-74
2023/07/31 01:41:33;;;;;;;3.47;1.60;;;;;;;;;;5011717;28;20545;-74
2023/07/31 01:43:59;;;;;;;6.18;1.60;;;;;;;;;;5013944;28;20026;-75
2023/07/31 01:46:25;;;;;;;4.03;1.55;;;;;;;;;;5011632;28;20034;-76
2023/07/31 01:48:54;;;;;;;6.28;1.83;;;;;;;;;;5013186;28;20053;-74
2023/07/31 01:51:21;;;;;;;1.98;1.67;;;;;;;;;;5014369;28;20036;-75
2023/07/31 01:53:47;;;;;;;4.38;1.65;;;;;;;;;;5013012;28;20025;-73
2023/07/31 01:56:14;;;;;;;3.63;1.65;;;;;;;;;;5013076;28;20034;-75
2023/07/31 01:58:41;;;;;;;3.45;1.30;;;;;;;;;;5013880;28;20117;-75
2023/07/31 02:01:09;;;;;;;4.78;1.73;;;;;;;;;;5014188;28;20050;-73
2023/07/31 02:03:35;;;;;;;4.85;1.60;;;;;;;;;;5012105;28;20693;-76
2023/07/31 02:06:01;;;;;;;5.90;2.03;;;;;;;;;;4994926;28;20042;-75
2023/07/31 02:08:30;;;;;;;6.28;1.55;;;;;;;;;;5012793;28;20029;-74
2023/07/31 02:10:57;;;;;;;6.00;1.52;;;;;;;;;;5014113;28;20030;-75
2023/07/31 02:13:25;;;;;;;4.95;1.60;;;;;;;;;;5012881;28;20343;-74
2023/07/31 02:15:52;;;;;;;5.38;2.10;;;;;;;;;;5013590;28;20045;-73
2023/07/31 02:18:19;;;;;;;5.63;1.60;;;;;;;;;;5013096;28;20042;-74
2023/07/31 02:20:52;;;;;;;5.50;2.00;;;;;;;;;;5013500;28;20034;-75
2023/07/31 02:23:19;;;;;;;2.42;2.08;;;;;;;;;;5015071;28;20399;-74
2023/07/31 02:25:47;;;;;;;3.92;2.05;;;;;;;;;;5030843;28;20080;-74
2023/07/31 02:28:13;;;;;;;4.60;2.50;;;;;;;;;;5012640;28;20417;-74
2023/07/31 02:30:39;;;;;;;6.72;2.28;;;;;;;;;;5012030;28;20080;-74
2023/07/31 02:33:09;;;;;;;3.47;2.30;;;;;;;;;;5012761;28;20053;-74
2023/07/31 02:35:35;;;;;;;6.10;1.35;;;;;;;;;;4997135;28;20033;-74
2023/07/31 02:38:04;;;;;;;6.30;2.38;;;;;;;;;;5014253;28;20059;-75
2023/07/31 02:40:31;;;;;;;3.95;1.70;;;;;;;;;;5013288;28;20033;-74
2023/07/31 02:43:03;;;;;;;3.58;1.85;;;;;;;;;;5013094;28;20119;-74
2023/07/31 02:45:32;;;;;;;5.05;2.10;;;;;;;;;;5014603;28;20032;-75
2023/07/31 02:47:58;;;;;;;5.95;1.85;;;;;;;;;;5014253;28;20040;-74
2023/07/31 02:50:24;;;;;;;3.65;1.70;;;;;;;;;;5012980;28;20021;-74
2023/07/31 02:52:54;;;;;;;4.40;2.08;;;;;;;;;;5011063;28;20054;-74
2023/07/31 02:55:19;;;;;;;2.50;1.80;;;;;;;;;;5011375;28;20041;-75
2023/07/31 02:57:47;;;;;;;5.13;1.48;;;;;;;;;;5012917;28;20034;-74
2023/07/31 03:00:14;;;;;;;3.08;1.50;;;;;;;;;;5011532;28;20026;-74
2023/07/31 03:02:40;;;;;;;3.47;1.58;;;;;;;;;;5012377;28;20030;-74
2023/07/31 03:05:08;;;;;;;5.35;2.05;;;;;;;;;;5013167;28;20080;-74
2023/07/31 03:07:35;;;;;;;4.97;1.92;;;;;;;;;;5012858;28;20152;-74
2023/07/31 03:10:02;;;;;;;4.50;1.77;;;;;;;;;;5011201;28;20042;-75
2023/07/31 03:12:31;;;;;;;4.03;1.70;;;;;;;;;;5014596;28;20037;-74
2023/07/31 03:15:01;;;;;;;8.25;2.22;;;;;;;;;;5016110;28;20084;-75
2023/07/31 03:17:29;;;;;;;4.70;1.63;;;;;;;;;;5023846;28;20026;-74
2023/07/31 03:19:56;;;;;;;5.15;2.30;;;;;;;;;;5029298;28;20129;-74
2023/07/31 03:22:22;;;;;;;4.35;1.77;;;;;;;;;;5026086;28;20026;-74
2023/07/31 03:24:48;;;;;;;2.50;1.70;;;;;;;;;;5015431;28;20040;-76
2023/07/31 03:27:15;;;;;;;7.70;1.90;;;;;;;;;;5015290;28;20057;-75
2023/07/31 03:29:41;;;;;;;7.95;2.15;;;;;;;;;;5015048;28;20022;-74
2023/07/31 03:32:09;;;;;;;1.73;1.30;;;;;;;;;;5015832;28;20101;-75
2023/07/31 03:34:35;;;;;;;5.97;1.67;;;;;;;;;;4998294;28;20116;-74
2023/07/31 03:37:01;;;;;;;3.38;2.13;;;;;;;;;;4998899;28;20088;-75
2023/07/31 03:39:27;;;;;;;6.03;2.42;;;;;;;;;;5003215;28;20430;-75
2023/07/31 03:41:53;;;;;;;6.97;1.70;;;;;;;;;;5016972;28;20029;-75
2023/07/31 03:44:19;;;;;;;4.53;2.30;;;;;;;;;;5012849;28;20022;-75
2023/07/31 03:46:56;;;;;;;3.53;1.58;;;;;;;;;;4998283;28;20053;-74
2023/07/31 03:49:29;;;;;;;1.55;1.35;;;;;;;;;;5004072;28;20351;-74
2023/07/31 03:51:57;;;;;;;4.45;1.60;;;;;;;;;;5035462;28;20021;-74
2023/07/31 03:54:23;;;;;;;1.95;1.30;;;;;;;;;;5012926;28;20419;-75
2023/07/31 03:56:52;;;;;;;4.40;1.63;;;;;;;;;;5016022;28;20085;-73
2023/07/31 03:59:22;;;;;;;2.88;1.70;;;;;;;;;;5015979;28;20033;-75
2023/07/31 04:01:57;;;;;;;3.97;1.60;;;;;;;;;;5015788;28;20524;-75
2023/07/31 04:04:24;;;;;;;2.72;1.95;;;;;;;;;;5000161;28;20036;-75
2023/07/31 04:06:50;;;;;;;7.90;2.20;;;;;;;;;;4998191;28;20033;-75
2023/07/31 04:09:21;;;;;;;3.45;1.73;;;;;;;;;;4998619;28;20512;-73
2023/07/31 04:11:47;;;;;;;6.25;2.17;;;;;;;;;;5015955;28;20076;-74
2023/07/31 04:14:14;;;;;;;4.18;2.25;;;;;;;;;;5015708;28;20442;-73
2023/07/31 04:16:39;;;;;;;3.53;1.25;;;;;;;;;;5016264;28;20525;-74
2023/07/31 04:19:06;;;;;;;5.93;1.80;;;;;;;;;;4998992;28;20030;-74
2023/07/31 04:21:32;;;;;;;4.13;1.83;;;;;;;;;;5016906;28;20080;-73
2023/07/31 04:23:58;;;;;;;2.92;2.10;;;;;;;;;;4998411;28;20537;-74
2023/07/31 04:26:24;;;;;;;5.22;2.35;;;;;;;;;;4997727;28;20044;-75
2023/07/31 04:29:03;;;;;;;6.65;2.20;;;;;;;;;;4997560;28;20029;-75
2023/07/31 04:31:30;;;;;;;11.93;2.67;;;;;;;;;;5014930;28;20054;-74
2023/07/31 04:33:59;;;;;;;9.38;2.05;;;;;;;;;;5015004;28;20033;-74
2023/07/31 04:36:24;;;;;;;9.20;2.55;;;;;;;;;;5014249;28;20049;-75
2023/07/31 04:38:57;;;;;;;4.32;2.15;;;;;;;;;;5014539;28;20060;-76
2023/07/31 04:41:23;;;;;;;5.35;2.40;;;;;;;;;;5015249;28;20109;-74
2023/07/31 04:43:49;;;;;;;8.00;2.13;;;;;;;;;;5013233;28;20107;-74
2023/07/31 04:46:26;;;;;;;9.45;2.17;;;;;;;;;;4998364;28;20026;-77
2023/07/31 04:48:51;;;;;;;2.10;1.77;;;;;;;;;;4998169;28;20034;-76
2023/07/31 04:51:18;;;;;;;5.03;2.47;;;;;;;;;;5015465;28;20474;-76
2023/07/31 04:53:43;;;;;;;4.55;1.92;;;;;;;;;;5013283;28;20084;-75
2023/07/31 04:56:10;;;;;;;4.93;1.60;;;;;;;;;;4997129;28;20025;-76
2023/07/31 04:58:38;;;;;;;5.50;1.40;;;;;;;;;;4996557;28;20030;-77
2023/07/31 05:01:04;;;;;;;2.20;1.40;;;;;;;;;;4997417;28;20451;-76
2023/07/31 05:03:33;;;;;;;5.85;2.05;;;;;;;;;;5016202;28;20821;-73
2023/07/31 05:06:02;;;;;;;3.38;1.80;;;;;;;;;;5000416;28;20123;-77
2023/07/31 05:08:34;;;;;;;5.00;1.90;;;;;;;;;;4995007;28;20133;-79
2023/07/31 05:11:00;;;;;;;3.30;1.88;;;;;;;;;;5006655;28;20017;-77
2023/07/31 05:13:26;;;;;;;5.50;2.30;;;;;;;;;;5020661;28;20494;-76
2023/07/31 05:16:00;;;;;;;5.10;2.00;;;;;;;;;;5014283;28;20026;-77
2023/07/31 05:18:26;;;;;;;4.55;1.75;;;;;;;;;;5011278;28;20045;-76
2023/07/31 05:20:52;;;;;;;4.57;1.98;;;;;;;;;;5022870;28;20103;-76
2023/07/31 05:23:23;;;;;;;4.35;2.00;;;;;;;;;;5024616;28;20487;-75
2023/07/31 05:25:50;;;;;;;4.68;1.63;;;;;;;;;;5003761;28;20123;-75
2023/07/31 05:28:16;;;;;;;2.67;1.80;;;;;;;;;;5024100;28;20041;-76
2023/07/31 05:30:43;;;;;;;3.67;1.70;;;;;;;;;;5018639;28;20537;-75
2023/07/31 05:33:12;;;;;;;6.10;2.92;;;;;;;;;;5029368;28;20032;-76
2023/07/31 05:35:40;;;;;;;4.18;1.58;;;;;;;;;;5023514;28;20107;-75
2023/07/31 05:38:06;;;;;;;3.70;1.75;;;;;;;;;;5012969;28;20053;-73
2023/07/31 05:40:44;;;;;;;4.40;2.20;;;;;;;;;;5027846;28;20025;-74
2023/07/31 05:43:16;;;;;;;6.97;2.20;;;;;;;;;;5046760;28;20035;-74
2023/07/31 05:45:48;;;;;;;5.05;1.52;;;;;;;;;;5016197;28;20045;-76
2023/07/31 05:48:17;;;;;;;5.05;2.00;;;;;;;;;;5011402;28;20033;-73
2023/07/31 05:50:43;;;;;;;3.13;1.65;;;;;;;;;;5024646;28;20029;-72
2023/07/31 05:53:14;;;;;;;4.45;2.17;;;;;;;;;;5020432;28;20025;-73
2023/07/31 05:55:40;;;;;;;6.75;1.90;;;;;;;;;;5024408;28;20045;-75
2023/07/31 05:58:07;;;;;;;4.85;1.95;;;;;;;;;;5021866;28;20049;-72
2023/07/31 06:00:38;;;;;;;9.32;2.33;;;;;;;;;;5015670;28;20030;-74
2023/07/31 06:03:04;;;;;;;6.22;2.15;;;;;;;;;;5024444;28;20026;-73
2023/07/31 06:05:30;;;;;;;2.58;1.70;;;;;;;;;;5024112;28;20029;-76
2023/07/31 06:07:57;;;;;;;4.15;1.98;;;;;;;;;;5027490;28;20692;-74
2023/07/31 06:10:22;;;;;;;5.95;2.22;;;;;;;;;;5018457;28;20541;-74
2023/07/31 06:12:48;;;;;;;4.60;1.80;;;;;;;;;;5021362;28;20060;-75
2023/07/31 06:15:13;;;;;;;2.85;1.95;;;;;;;;;;5022700;28;20040;-75
2023/07/31 06:17:39;;;;;;;7.00;1.63;;;;;;;;;;5024486;28;20029;-75
2023/07/31 06:20:06;;;;;;;3.88;1.63;;;;;;;;;;5020749;28;20381;-74
2023/07/31 06:22:32;;;;;;;6.07;1.92;;;;;;;;;;5025793;28;20033;-77
2023/07/31 06:24:58;;;;;;;8.10;1.70;;;;;;;;;;5011500;28;20041;-75
2023/07/31 06:27:24;;;;;;;2.55;2.13;;;;;;;;;;5007018;28;20063;-74
2023/07/31 06:29:49;;;;;;;3.25;1.58;;;;;;;;;;5021125;28;20037;-75
2023/07/31 06:32:17;;;;;;;10.30;2.10;;;;;;;;;;5022430;28;20030;-76
2023/07/31 06:34:44;;;;;;;7.03;1.80;;;;;;;;;;4998009;28;20047;-74
2023/07/31 06:37:10;;;;;;;2.92;1.67;;;;;;;;;;5017957;28;20163;-76
2023/07/31 06:39:35;;;;;;;6.07;2.10;;;;;;;;;;5016446;28;20119;-75
2023/07/31 06:42:04;;;;;;;2.50;1.55;;;;;;;;;;5006327;28;20036;-74
2023/07/31 06:44:31;;;;;;;5.65;2.17;;;;;;;;;;5021046;28;20040;-76
2023/07/31 06:46:58;;;;;;;5.47;1.85;;;;;;;;;;5001527;28;20022;-76
2023/07/31 06:49:23;;;;;;;4.47;1.50;;;;;;;;;;5023267;28;20086;-75
2023/07/31 06:51:49;;;;;;;3.50;1.90;;;;;;;;;;4987552;28;20120;-76
2023/07/31 06:54:14;;;;;;;3.72;1.90;;;;;;;;;;5001495;28;20025;-72
2023/07/31 06:56:41;;;;;;;7.05;1.98;;;;;;;;;;5020500;28;20029;-73
2023/07/31 06:59:06;;;;;;;4.72;1.60;;;;;;;;;;5021212;28;20029;-74
2023/07/31 07:01:32;;;;;;;5.20;1.80;;;;;;;;;;5001447;28;20115;-74
2023/07/31 07:03:59;;;;;;;5.18;1.73;;;;;;;;;;5018028;28;20065;-73
2023/07/31 07:06:24;;;;;;;4.88;1.50;;;;;;;;;;4996849;28;20061;-75
2023/07/31 07:08:50;;;;;;;5.88;1.90;;;;;;;;;;5004306;28;20112;-74
2023/07/31 07:11:15;;;;;;;4.68;1.63;;;;;;;;;;5007116;28;20053;-76
2023/07/31 07:13:41;;;;;;;6.10;2.13;;;;;;;;;;4997355;28;20025;-76
2023/07/31 07:16:07;;;;;;;9.13;2.40;;;;;;;;;;5001310;28;20866;-75
2023/07/31 07:18:32;;;;;;;7.57;2.03;;;;;;;;;;5016909;28;20695;-75
2023/07/31 07:20:58;;;;;;;4.93;1.35;;;;;;;;;;5024965;28;20092;-75
2023/07/31 07:23:24;;;;;;;3.90;1.60;;;;;;;;;;4990537;28;20096;-73
2023/07/31 07:25:49;;;;;;;6.00;1.70;;;;;;;;;;5011500;28;20030;-74
2023/07/31 07:28:15;;;;;;;2.80;1.38;;;;;;;;;;4992163;28;20030;-75
2023/07/31 07:30:41;;;;;;;6.70;2.50;;;;;;;;;;5019681;28;20050;-75
2023/07/31 07:33:06;;;;;;;7.00;1.60;;;;;;;;;;5032538;28;20022;-77
2023/07/31 07:35:35;;;;;;;4.63;1.50;;;;;;;;;;5021623;28;20132;-76
2023/07/31 07:38:05;;;;;;;4.65;1.65;;;;;;;;;;4998545;28;20100;-76
2023/07/31 07:40:31;;;;;;;2.65;1.38;;;;;;;;;;5019771;28;20031;-75
2023/07/31 07:42:57;;;;;;;2.92;1.17;;;;;;;;;;5025929;28;20021;-74
2023/07/31 07:45:22;;;;;;;4.70;1.75;;;;;;;;;;5017932;28;20033;-75
2023/07/31 07:47:48;;;;;;;2.40;1.52;;;;;;;;;;5020043;28;20022;-75
2023/07/31 07:50:13;;;;;;;5.38;1.55;;;;;;;;;;5026085;28;20536;-73
2023/07/31 07:52:39;;;;;;;4.75;1.30;;;;;;;;;;5028191;28;20424;-76
2023/07/31 07:55:05;;;;;;;3.80;1.40;;;;;;;;;;5025213;28;20128;-75
2023/07/31 07:57:30;;;;;;;4.22;2.80;;;;;;;;;;5023610;28;20030;-77
2023/07/31 07:59:55;;;;;;;6.38;1.73;;;;;;;;;;5018245;28;20036;-76
2023/07/31 08:02:22;;;;;;;9.30;2.70;;;;;;;;;;5017531;28;20038;-75
2023/07/31 08:04:48;;;;;;;3.05;1.00;;;;;;;;;;5018789;28;20034;-75
2023/07/31 08:07:14;;;;;;;2.10;1.20;;;;;;;;;;5018348;28;20028;-75
2023/07/31 08:09:40;;;;;;;4.70;1.30;;;;;;;;;;5009442;28;20025;-75
2023/07/31 08:12:07;;;;;;;5.68;1.52;;;;;;;;;;5021125;28;20124;-74
2023/07/31 08:14:32;;;;;;;3.15;1.27;;;;;;;;;;5017690;28;20037;-75
2023/07/31 08:16:58;;;;;;;2.72;1.27;;;;;;;;;;5012901;28;20055;-74
2023/07/31 08:19:24;;;;;;;3.95;1.70;;;;;;;;;;5008165;28;20029;-73
2023/07/31 08:21:49;;;;;;;7.55;1.30;;;;;;;;;;5026661;28;20056;-73
2023/07/31 08:24:15;;;;;;;5.55;1.73;;;;;;;;;;5023942;28;21304;-74
2023/07/31 08:26:40;;;;;;;2.55;1.50;;;;;;;;;;5020288;28;20061;-74
2023/07/31 08:29:06;;;;;;;2.55;1.40;;;;;;;;;;5022417;28;20366;-75
2023/07/31 08:31:32;;;;;;;4.63;1.48;;;;;;;;;;5022297;28;20498;-76
2023/07/31 08:33:57;;;;;;;7.07;1.80;;;;;;;;;;5022786;28;20037;-77
2023/07/31 08:36:24;;;;;;;4.60;1.67;;;;;;;;;;5019030;28;20037;-74
2023/07/31 08:38:50;;;;;;;7.35;1.67;;;;;;;;;;5020195;28;20025;-76
2023/07/31 08:41:17;;;;;;;2.90;1.50;;;;;;;;;;5022007;28;20041;-74
2023/07/31 08:43:45;;;;;;;8.10;1.90;;;;;;;;;;5012498;28;20025;-74
2023/07/31 08:46:14;;;;;;;4.53;1.23;;;;;;;;;;5019962;28;20132;-77
2023/07/31 08:48:42;;;;;;;2.28;1.50;;;;;;;;;;5018802;28;20029;-77
2023/07/31 08:51:08;;;;;;;5.25;1.30;;;;;;;;;;5018806;28;20034;-76
2023/07/31 08:53:35;;;;;;;3.67;1.65;;;;;;;;;;5019141;28;20034;-74
2023/07/31 08:56:06;;;;;;;3.35;1.58;;;;;;;;;;5021515;28;20076;-75
2023/07/31 08:58:35;;;;;;;9.63;3.10;;;;;;;;;;5025087;28;20048;-76
2023/07/31 09:01:04;;;;;;;3.22;1.80;;;;;;;;;;5001265;28;20127;-75
2023/07/31 09:03:34;;;;;;;7.85;2.25;;;;;;;;;;5031381;28;20038;-76
2023/07/31 09:06:00;;;;;;;4.10;1.77;;;;;;;;;;5032831;28;20076;-75
2023/07/31 09:08:30;;;;;;;3.92;1.92;;;;;;;;;;5021239;28;20038;-74
2023/07/31 09:11:06;;;;;;;5.28;1.77;;;;;;;;;;5019708;28;20067;-74
2023/07/31 09:13:32;;;;;;;4.45;1.95;;;;;;;;;;5019652;28;20033;-74
2023/07/31 09:15:58;;;;;;;5.97;1.88;;;;;;;;;;5018579;28;20029;-75
2023/07/31 09:18:24;;;;;;;4.30;2.00;;;;;;;;;;5011968;28;20032;-76
2023/07/31 09:21:04;;;;;;;4.57;2.30;;;;;;;;;;5018104;28;20033;-75
2023/07/31 09:23:51;;;;;;;4.68;2.22;;;;;;;;;;5022701;28;20048;-76
2023/07/31 09:26:34;;;;;;;4.88;1.95;;;;;;;;;;5024237;28;20034;-77
2023/07/31 09:29:01;;;;;;;9.20;2.05;;;;;;;;;;5022155;28;20474;-74
2023/07/31 09:31:38;;;;;;;3.67;1.80;;;;;;;;;;5026453;28;20060;-77
2023/07/31 09:34:04;;;;;;;3.33;1.65;;;;;;;;;;5018750;28;20037;-76
2023/07/31 09:36:31;;;;;;;6.22;1.63;;;;;;;;;;5013749;28;20033;-76
2023/07/31 09:39:02;;;;;;;7.47;1.88;;;;;;;;;;5018209;28;20357;-77
2023/07/31 09:41:28;;;;;;;2.97;1.35;;;;;;;;;;5010979;28;20033;-75
2023/07/31 09:43:54;;;;;;;3.33;1.75;;;;;;;;;;5025805;28;20091;-75
2023/07/31 09:46:21;;;;;;;4.15;1.50;;;;;;;;;;5019629;28;20361;-74
2023/07/31 09:48:48;;;;;;;9.40;2.05;;;;;;;;;;5017958;28;20385;-77
2023/07/31 09:51:14;;;;;;;3.75;2.17;;;;;;;;;;5020517;28;20032;-74
2023/07/31 09:53:39;;;;;;;5.53;1.77;;;;;;;;;;5017932;28;20377;-73
2023/07/31 09:56:05;;;;;;;5.00;1.70;;;;;;;;;;5014525;28;20021;-73
2023/07/31 09:58:37;;;;;;;7.05;1.95;;;;;;;;;;5016945;28;20036;-76
2023/07/31 10:01:03;;;;;;;4.55;2.08;;;;;;;;;;5011180;28;20060;-76
2023/07/31 10:03:31;;;;;;;5.07;1.83;;;;;;;;;;5022048;28;20489;-75
2023/07/31 10:05:58;;;;;;;5.18;2.17;;;;;;;;;;5020647;28;20037;-78
2023/07/31 10:08:36;;;;;;;5.68;2.17;;;;;;;;;;5022114;28;20537;-78
2023/07/31 10:11:04;;;;;;;2.67;1.90;;;;;;;;;;5015102;28;20053;-77
2023/07/31 10:13:31;;;;;;;4.20;1.85;;;;;;;;;;5023984;28;20377;-75
2023/07/31 10:16:03;;;;;;;5.38;1.70;;;;;;;;;;5020565;28;20026;-82
2023/07/31 10:18:30;;;;;;;4.75;1.90;;;;;;;;;;5024792;28;20154;-80
2023/07/31 10:20:56;;;;;;;4.63;1.90;;;;;;;;;;5020166;28;20092;-77
2023/07/31 10:23:25;;;;;;;4.75;2.00;;;;;;;;;;5041507;28;20414;-78
2023/07/31 10:25:56;;;;;;;3.03;1.73;;;;;;;;;;5019573;28;20025;-78
2023/07/31 10:28:22;;;;;;;;;;;;;;;;;;5016990;28;20481;-77
2023/07/31 10:30:50;;;;;;;5.47;1.75;;;;;;;;;;5024342;28;19923;-76
2023/07/31 10:33:17;;;;;;;3.55;1.92;;;;;;;;;;5007766;28;20674;-79
2023/07/31 10:35:53;;;;;;;5.07;1.77;;;;;;;;;;4988822;28;20088;-77
2023/07/31 10:38:23;;;;;;;6.10;2.50;;;;;;;;;;5010740;28;20037;-78
2023/07/31 10:40:50;;;;;;;6.97;1.90;;;;;;;;;;5007455;28;20033;-76
2023/07/31 10:43:28;;;;;;;5.10;2.13;;;;;;;;;;4991022;28;20348;-80
2023/07/31 10:45:54;;;;;;;6.82;2.20;;;;;;;;;;5020420;28;20362;-78
2023/07/31 10:48:20;;;;;;;5.30;2.20;;;;;;;;;;5011293;28;20036;-78
2023/07/31 10:50:49;;;;;;;4.18;2.10;;;;;;;;;;5009968;28;20021;-77
2023/07/31 10:53:24;;;;;;;5.75;2.00;;;;;;;;;;5007650;28;20057;-78
2023/07/31 10:56:05;;;;;;;3.25;2.00;;;;;;;;;;4995233;28;20033;-78
2023/07/31 10:58:32;;;;;;;4.03;1.60;;;;;;;;;;5011405;28;20036;-78
2023/07/31 11:01:00;;;;;;;4.53;2.15;;;;;;;;;;4988447;28;20060;-77
2023/07/31 11:03:42;;;;;;;5.78;1.90;;;;;;;;;;5022294;28;20183;-78
2023/07/31 11:06:07;;;;;;;7.68;2.30;;;;;;;;;;5010459;28;20056;-78
2023/07/31 11:08:35;;;;;;;5.55;2.00;;;;;;;;;;5017771;28;20029;-77
2023/07/31 11:11:15;;;;;;;3.97;1.70;;;;;;;;;;5016481;28;20021;-79
2023/07/31 11:13:44;;;;;;;6.60;2.53;;;;;;;;;;5019919;28;20478;-75
2023/07/31 11:16:13;;;;;;;3.25;1.75;;;;;;;;;;5001705;28;20026;-75
2023/07/31 11:18:48;;;;;;;4.20;1.92;;;;;;;;;;5001647;28;20030;-77
2023/07/31 11:21:32;;;;;;;5.13;2.15;;;;;;;;;;5013800;28;20033;-76
2023/07/31 11:23:58;;;;;;;3.63;2.00;;;;;;;;;;5004807;28;20359;-77
2023/07/31 11:26:33;;;;;;;7.38;2.25;;;;;;;;;;5002095;28;20025;-77
2023/07/31 11:29:04;;;;;;;6.68;1.40;;;;;;;;;;5001773;28;20041;-77
2023/07/31 11:31:30;;;;;;;;;;;;;;;;;;5012363;28;20367;-76
2023/07/31 11:34:06;;;;;;;4.22;1.70;;;;;;;;;;5022545;28;19967;-78
2023/07/31 11:36:31;;;;;;;5.63;1.92;;;;;;;;;;5023506;28;20034;-78
2023/07/31 11:39:06;;;;;;;4.03;1.67;;;;;;;;;;5024254;28;20038;-79
2023/07/31 11:41:32;;;;;;;2.13;1.70;;;;;;;;;;5041739;28;20060;-81
2023/07/31 11:44:23;;;;;;;4.20;1.50;;;;;;;;;;5043706;28;20033;-82
2023/07/31 11:46:57;;;;;;;3.30;1.55;;;;;;;;;;5021561;28;20029;-85
2023/07/31 11:49:23;;;;;;;4.32;1.65;;;;;;;;;;5031486;28;20033;-78
2023/07/31 11:51:49;;;;;;;2.75;2.05;;;;;;;;;;5009660;28;20084;-83
2023/07/31 11:54:16;;;;;;;2.03;1.23;;;;;;;;;;5026703;28;20017;-81
2023/07/31 11:56:49;;;;;;;3.50;1.60;;;;;;;;;;5023738;28;20290;-78
2023/07/31 11:59:17;;;;;;;4.63;1.52;;;;;;;;;;5029057;28;20132;-82
2023/07/31 12:01:43;;;;;;;2.03;1.13;;;;;;;;;;5009410;28;20141;-81
2023/07/31 12:04:09;;;;;;;3.97;1.80;;;;;;;;;;5029767;28;20559;-81
2023/07/31 12:06:36;;;;;;;3.20;1.70;;;;;;;;;;5012893;28;20421;-80
2023/07/31 12:09:07;;;;;;;7.18;1.50;;;;;;;;;;5022429;28;20043;-77
2023/07/31 12:11:48;;;;;;;4.75;1.88;;;;;;;;;;5028473;28;20038;-79
2023/07/31 12:14:22;;;;;;;;;;;;;;;;;;5017097;28;20026;-81
2023/07/31 12:16:52;;;;;;;5.22;2.20;;;;;;;;;;5016912;28;19927;-79
2023/07/31 12:19:22;;;;;;;2.20;1.55;;;;;;;;;;5001304;28;20053;-82
2023/07/31 12:21:48;;;;;;;3.17;1.40;;;;;;;;;;5021482;28;20397;-79
2023/07/31 12:24:14;;;;;;;5.25;1.70;;;;;;;;;;5027952;28;20060;-80
2023/07/31 12:26:45;;;;;;;3.53;1.77;;;;;;;;;;5025817;28;20018;-78
2023/07/31 12:29:12;;;;;;;2.97;1.30;;;;;;;;;;5025448;28;20036;-83
2023/07/31 12:31:41;;;;;;;6.03;1.50;;;;;;;;;;5024525;28;20092;-79
2023/07/31 12:34:21;;;;;;;5.43;1.70;;;;;;;;;;5027062;28;20025;-80
2023/07/31 12:36:54;;;;;;;3.38;1.33;;;;;;;;;;5023238;28;20053;-82
2023/07/31 12:39:20;;;;;;;3.70;1.70;;;;;;;;;;5024077;28;20033;-79
2023/07/31 12:41:46;;;;;;;4.40;1.52;;;;;;;;;;5021816;28;20085;-83
2023/07/31 12:44:17;;;;;;;3.05;1.48;;;;;;;;;;5009498;28;20056;-81
2023/07/31 12:46:46;;;;;;;3.78;1.15;;;;;;;;;;5019477;28;20079;-75
2023/07/31 12:49:12;;;;;;;3.40;1.30;;;;;;;;;;5024857;28;20085;-81
2023/07/31 12:51:40;;;;;;;2.67;1.17;;;;;;;;;;5028181;28;20045;-84
2023/07/31 12:54:08;;;;;;;1.42;1.20;;;;;;;;;;5031841;28;20113;-80
2023/07/31 12:56:45;;;;;;;3.08;1.25;;;;;;;;;;5022609;28;20098;-83
2023/07/31 12:59:11;;;;;;;1.83;0.80;;;;;;;;;;5023707;28;20029;-82
2023/07/31 13:01:37;;;;;;;1.25;1.10;;;;;;;;;;5011713;28;20054;-74
2023/07/31 13:04:15;;;;;;;6.15;1.70;;;;;;;;;;5027876;28;20033;-81
2023/07/31 13:06:41;;;;;;;3.33;1.10;;;;;;;;;;5020714;28;20041;-84
2023/07/31 13:09:09;;;;;;;2.50;1.40;;;;;;;;;;5023930;28;20406;-79
2023/07/31 13:11:40;;;;;;;4.15;1.25;;;;;;;;;;5026848;28;20022;-82
2023/07/31 13:14:15;;;;;;;2.13;1.15;;;;;;;;;;5019494;28;20036;-81
2023/07/31 13:16:41;;;;;;;3.20;1.83;;;;;;;;;;5020645;28;20106;-79
2023/07/31 13:19:14;;;;;;;3.13;1.80;;;;;;;;;;5027704;28;20486;-83
2023/07/31 13:21:40;;;;;;;4.28;1.30;;;;;;;;;;5027198;28;20033;-79
2023/07/31 13:24:09;;;;;;;2.33;1.25;;;;;;;;;;5034542;28;20052;-77
2023/07/31 13:26:37;;;;;;;6.40;1.58;;;;;;;;;;5029377;28;20037;-79
2023/07/31 13:29:03;;;;;;;2.08;1.10;;;;;;;;;;5032913;28;20305;-81
2023/07/31 13:31:29;;;;;;;3.17;1.40;;;;;;;;;;5034419;28;20140;-80
2023/07/31 13:33:56;;;;;;;3.10;1.27;;;;;;;;;;5033514;28;20056;-81
2023/07/31 13:36:22;;;;;;;5.00;1.70;;;;;;;;;;5018696;28;20041;-79
2023/07/31 13:38:51;;;;;;;3.30;1.48;;;;;;;;;;5011925;28;20029;-77
2023/07/31 13:41:17;;;;;;;2.92;1.20;;;;;;;;;;4997926;28;20038;-80
2023/07/31 13:43:52;;;;;;;4.57;1.42;;;;;;;;;;5010256;28;20029;-79
2023/07/31 13:46:18;;;;;;;5.68;1.58;;;;;;;;;;5007167;28;20366;-80
2023/07/31 13:48:46;;;;;;;5.40;1.70;;;;;;;;;;5027356;28;20021;-80
2023/07/31 13:51:12;;;;;;;1.90;1.35;;;;;;;;;;5009933;28;20030;-77
2023/07/31 13:53:38;;;;;;;5.68;1.63;;;;;;;;;;5025449;28;20404;-77
2023/07/31 13:56:04;;;;;;;7.65;1.73;;;;;;;;;;5029645;28;20021;-76
2023/07/31 13:58:29;;;;;;;8.63;1.98;;;;;;;;;;5023162;28;20025;-77
2023/07/31 14:00:55;;;;;;;4.90;1.88;;;;;;;;;;5010995;28;20064;-81
2023/07/31 14:03:21;;;;;;;4.40;1.50;;;;;;;;;;5016107;28;20425;-80
2023/07/31 14:05:47;;;;;;;9.70;2.47;;;;;;;;;;5017095;28;20033;-81
2023/07/31 14:08:13;;;;;;;6.45;1.80;;;;;;;;;;5031554;28;20079;-82
2023/07/31 14:10:39;;;;;;;5.00;1.67;;;;;;;;;;5019098;28;20029;-77
2023/07/31 14:13:09;;;;;;;4.13;1.63;;;;;;;;;;5025593;28;20025;-81
2023/07/31 14:15:37;;;;;;;8.10;1.90;;;;;;;;;;5032159;28;20084;-80
2023/07/31 14:18:06;;;;;;;4.32;2.10;;;;;;;;;;5031027;28;20076;-77
2023/07/31 14:20:36;;;;;;;4.10;1.75;;;;;;;;;;5020552;28;20029;-79
2023/07/31 14:23:05;;;;;;;3.38;1.70;;;;;;;;;;5033592;28;20052;-81
2023/07/31 14:25:31;;;;;;;3.28;1.70;;;;;;;;;;5023009;28;20047;-82
2023/07/31 14:27:57;;;;;;;4.35;1.60;;;;;;;;;;5042136;28;20033;-81
2023/07/31 14:30:23;;;;;;;4.13;2.00;;;;;;;;;;5039919;28;20120;-79
2023/07/31 14:32:51;;;;;;;4.65;1.58;;;;;;;;;;5024724;28;20025;-80
2023/07/31 14:35:30;;;;;;;3.90;1.60;;;;;;;;;;5014300;28;20028;-82
2023/07/31 14:37:58;;;;;;;4.32;1.60;;;;;;;;;;5017618;28;20046;-81
2023/07/31 14:40:27;;;;;;;4.05;1.48;;;;;;;;;;5030727;28;20030;-79
2023/07/31 14:42:55;;;;;;;5.95;2.00;;;;;;;;;;5012014;28;20081;-83
2023/07/31 14:45:21;;;;;;;5.18;1.27;;;;;;;;;;5036381;28;20083;-80
2023/07/31 14:47:47;;;;;;;4.43;1.60;;;;;;;;;;5010646;28;20034;-81
2023/07/31 14:50:13;;;;;;;3.92;1.88;;;;;;;;;;5027595;28;20033;-81